Time;durP1;ratioP1;P1;durP2;ratioP2;P2;SDS_P1;SDS_P2;PMS_P1;PMS_P2;Temp;Humidity;BMP_temperature;BMP_pressure;BME280_temperature;BME280_humidity;BME280_pressure;Samples;Min_cycle;Max_cycle;Signal;HPM_P1;HPM_P2
2024/01/22 00:02:06;;;;;;;11.63;6.93;;;2.50;99.90;;;;;;5027861;28;20302;-59
2024/01/22 00:04:34;;;;;;;12.02;6.95;;;2.50;99.90;;;;;;5031906;28;20222;-59
2024/01/22 00:07:02;;;;;;;10.95;6.45;;;2.50;99.90;;;;;;5032118;28;20214;-59
2024/01/22 00:09:30;;;;;;;12.40;6.63;;;2.50;99.90;;;;;;5031511;28;20229;-59
2024/01/22 00:11:58;;;;;;;12.90;6.53;;;2.50;99.90;;;;;;5031491;28;20241;-58
2024/01/22 00:14:26;;;;;;;10.57;6.82;;;2.50;99.90;;;;;;5031516;28;20218;-59
2024/01/22 00:16:55;;;;;;;17.00;6.50;;;2.50;99.90;;;;;;5031841;28;20301;-59
2024/01/22 00:19:23;;;;;;;10.02;6.00;;;2.50;99.90;;;;;;5031780;28;20261;-59
2024/01/22 00:21:51;;;;;;;8.85;5.97;;;2.50;99.90;;;;;;5030373;28;20679;-58
2024/01/22 00:24:19;;;;;;;7.07;5.55;;;2.60;99.90;;;;;;5031302;28;20234;-59
2024/01/22 00:26:47;;;;;;;14.52;5.65;;;2.60;99.90;;;;;;5031629;28;20735;-60
2024/01/22 00:29:15;;;;;;;10.18;5.20;;;2.60;99.90;;;;;;5031250;28;20230;-60
2024/01/22 00:31:42;;;;;;;8.57;5.07;;;2.70;99.90;;;;;;5031243;28;20207;-59
2024/01/22 00:34:12;;;;;;;10.20;5.13;;;2.70;99.90;;;;;;5031589;28;20210;-59
2024/01/22 00:36:40;;;;;;;13.95;5.55;;;2.70;99.90;;;;;;5032510;28;20234;-60
2024/01/22 00:39:08;;;;;;;11.02;5.72;;;2.80;99.90;;;;;;5037955;28;20225;-59
2024/01/22 00:41:36;;;;;;;6.88;5.20;;;2.80;99.90;;;;;;5034196;28;20318;-60
2024/01/22 00:44:05;;;;;;;8.10;5.45;;;2.80;99.90;;;;;;5031035;28;20206;-59
2024/01/22 00:46:32;;;;;;;12.32;5.45;;;2.70;99.90;;;;;;5031075;28;20245;-59
2024/01/22 00:49:03;;;;;;;10.93;5.57;;;2.70;99.90;;;;;;5030089;28;20226;-59
2024/01/22 00:51:33;;;;;;;8.63;5.13;;;2.70;99.90;;;;;;5030980;28;20202;-59
2024/01/22 00:54:01;;;;;;;12.63;5.47;;;2.70;99.90;;;;;;5023098;28;20202;-60
2024/01/22 00:56:29;;;;;;;7.78;5.35;;;2.60;99.90;;;;;;5031193;28;20213;-60
2024/01/22 00:58:57;;;;;;;7.65;4.88;;;2.60;99.90;;;;;;5030861;28;20233;-59
2024/01/22 01:01:25;;;;;;;8.80;5.30;;;2.50;99.90;;;;;;5044425;28;20198;-60
2024/01/22 01:03:56;;;;;;;10.23;5.22;;;2.50;99.90;;;;;;5040239;28;20261;-60
2024/01/22 01:06:24;;;;;;;7.28;5.05;;;2.50;99.90;;;;;;5030871;28;20249;-59
2024/01/22 01:08:53;;;;;;;8.52;5.13;;;2.40;99.90;;;;;;5030808;28;20248;-59
2024/01/22 01:11:21;;;;;;;10.85;5.85;;;2.40;99.90;;;;;;5031161;28;20237;-59
2024/01/22 01:13:49;;;;;;;9.45;5.03;;;2.40;99.90;;;;;;5030437;28;20246;-59
2024/01/22 01:16:17;;;;;;;8.32;4.20;;;2.30;99.90;;;;;;5031438;28;20237;-59
2024/01/22 01:18:45;;;;;;;7.55;5.00;;;2.30;99.90;;;;;;5030308;28;20361;-58
2024/01/22 01:21:13;;;;;;;11.70;5.32;;;2.30;99.90;;;;;;5032908;28;20211;-59
2024/01/22 01:23:41;;;;;;;9.30;4.63;;;2.30;99.90;;;;;;5034728;28;20207;-60
2024/01/22 01:26:10;;;;;;;7.50;4.50;;;2.30;99.90;;;;;;5035076;28;20555;-59
2024/01/22 01:28:38;;;;;;;7.47;5.00;;;2.30;99.90;;;;;;5034140;28;20226;-59
2024/01/22 01:31:06;;;;;;;9.50;4.65;;;2.30;99.90;;;;;;5034685;28;20264;-59
2024/01/22 01:33:35;;;;;;;6.75;5.00;;;2.40;99.90;;;;;;5030923;28;20206;-59
2024/01/22 01:36:04;;;;;;;10.00;4.93;;;2.50;99.90;;;;;;5026356;28;20679;-59
2024/01/22 01:38:32;;;;;;;10.30;5.00;;;2.50;99.90;;;;;;5034565;28;20601;-60
2024/01/22 01:40:59;;;;;;;7.60;5.20;;;2.60;99.90;;;;;;5034189;28;20268;-60
2024/01/22 01:43:29;;;;;;;8.93;4.50;;;2.60;99.90;;;;;;5034288;28;20199;-59
2024/01/22 01:45:56;;;;;;;7.20;4.53;;;2.60;99.90;;;;;;5033425;28;20242;-60
2024/01/22 01:48:24;;;;;;;6.50;4.55;;;2.60;99.90;;;;;;5033414;28;20281;-60
2024/01/22 01:50:52;;;;;;;6.85;5.10;;;2.50;99.90;;;;;;5044717;28;20233;-59
2024/01/22 01:53:21;;;;;;;6.53;4.82;;;2.50;99.90;;;;;;5039286;28;20199;-60
2024/01/22 01:55:49;;;;;;;10.98;5.00;;;2.50;99.90;;;;;;5039612;28;20238;-59
2024/01/22 01:58:18;;;;;;;9.15;4.88;;;2.40;99.90;;;;;;5042641;28;20275;-58
2024/01/22 02:00:49;;;;;;;11.63;5.85;;;2.40;99.90;;;;;;5050050;28;20687;-59
2024/01/22 02:03:17;;;;;;;9.80;4.80;;;2.40;99.90;;;;;;5034015;28;20729;-60
2024/01/22 02:05:45;;;;;;;10.43;4.75;;;2.50;99.90;;;;;;5034140;28;20671;-60
2024/01/22 02:08:14;;;;;;;8.65;5.20;;;2.60;99.90;;;;;;5033941;28;20233;-59
2024/01/22 02:10:41;;;;;;;8.82;4.72;;;2.60;99.90;;;;;;5033649;28;20199;-59
2024/01/22 02:13:09;;;;;;;7.50;4.68;;;2.70;99.90;;;;;;5033530;28;20635;-59
2024/01/22 02:15:37;;;;;;;11.43;5.20;;;2.70;99.90;;;;;;5034019;28;20318;-60
2024/01/22 02:18:06;;;;;;;5.28;4.30;;;2.70;99.90;;;;;;5037619;28;20217;-60
2024/01/22 02:20:35;;;;;;;10.98;4.10;;;2.70;99.90;;;;;;5046197;28;20211;-60
2024/01/22 02:23:05;;;;;;;7.85;4.50;;;2.70;99.90;;;;;;5033220;28;20203;-59
2024/01/22 02:25:33;;;;;;;6.88;3.72;;;2.70;99.90;;;;;;5033758;28;20203;-59
2024/01/22 02:28:00;;;;;;;7.05;4.45;;;2.70;99.90;;;;;;5033619;28;20230;-59
2024/01/22 02:30:28;;;;;;;9.02;4.78;;;2.70;99.90;;;;;;5033425;28;20203;-60
2024/01/22 02:32:56;;;;;;;7.35;4.15;;;2.70;99.90;;;;;;5032061;28;20207;-59
2024/01/22 02:35:24;;;;;;;7.88;3.72;;;2.70;99.90;;;;;;5033404;28;20210;-60
2024/01/22 02:37:52;;;;;;;8.00;4.55;;;2.70;99.90;;;;;;5033311;28;20288;-59
2024/01/22 02:40:21;;;;;;;6.60;4.20;;;2.70;99.90;;;;;;5033637;28;20264;-59
2024/01/22 02:42:50;;;;;;;5.85;3.50;;;2.70;99.90;;;;;;5033614;28;20214;-60
2024/01/22 02:45:18;;;;;;;6.75;3.78;;;2.70;99.90;;;;;;5032979;28;20553;-59
2024/01/22 02:47:46;;;;;;;11.57;4.03;;;2.80;99.90;;;;;;5032929;28;20223;-59
2024/01/22 02:50:15;;;;;;;6.38;3.15;;;2.80;99.90;;;;;;5033515;28;20736;-60
2024/01/22 02:52:42;;;;;;;12.20;4.10;;;2.90;99.90;;;;;;5032670;28;20202;-59
2024/01/22 02:55:11;;;;;;;9.20;3.58;;;3.00;99.90;;;;;;5033486;28;20207;-59
2024/01/22 02:57:40;;;;;;;7.85;3.45;;;3.00;99.90;;;;;;5030786;28;20285;-59
2024/01/22 03:00:09;;;;;;;9.07;4.00;;;3.10;99.90;;;;;;5027881;28;20254;-60
2024/01/22 03:02:37;;;;;;;5.90;3.20;;;3.10;99.90;;;;;;5032315;28;20663;-59
2024/01/22 03:05:05;;;;;;;7.50;3.17;;;3.20;99.90;;;;;;5032172;28;20592;-59
2024/01/22 03:07:33;;;;;;;7.32;3.55;;;3.20;99.90;;;;;;5032990;28;20310;-59
2024/01/22 03:10:01;;;;;;;6.80;2.97;;;3.20;99.90;;;;;;5032592;28;20195;-59
2024/01/22 03:12:30;;;;;;;5.68;2.80;;;3.20;99.90;;;;;;5040616;28;20599;-60
2024/01/22 03:15:00;;;;;;;4.63;2.55;;;3.20;99.90;;;;;;5035216;28;20250;-60
2024/01/22 03:17:28;;;;;;;6.85;2.70;;;3.20;99.90;;;;;;5042336;28;20275;-59
2024/01/22 03:19:56;;;;;;;7.95;2.72;;;3.30;99.90;;;;;;5047301;28;20230;-59
2024/01/22 03:22:23;;;;;;;4.30;2.60;;;3.30;99.90;;;;;;5032291;28;20226;-60
2024/01/22 03:24:51;;;;;;;4.13;2.15;;;3.20;99.90;;;;;;5032586;28;20256;-58
2024/01/22 03:27:19;;;;;;;7.85;3.08;;;3.30;99.90;;;;;;5032555;28;20230;-59
2024/01/22 03:29:47;;;;;;;6.13;2.90;;;3.20;99.90;;;;;;5032592;28;20376;-59
2024/01/22 03:32:16;;;;;;;7.53;2.67;;;3.20;99.90;;;;;;5032391;28;20222;-63
2024/01/22 03:34:44;;;;;;;3.70;2.47;;;3.10;99.90;;;;;;5031949;28;20714;-60
2024/01/22 03:37:12;;;;;;;5.65;2.38;;;3.10;99.90;;;;;;5031780;28;20557;-59
2024/01/22 03:39:40;;;;;;;4.85;2.67;;;3.10;99.90;;;;;;5028890;28;20234;-58
2024/01/22 03:42:11;;;;;;;4.90;2.53;;;3.10;99.90;;;;;;5031627;28;20202;-59
2024/01/22 03:44:40;;;;;;;6.95;2.88;;;3.10;99.90;;;;;;5031337;28;20682;-59
2024/01/22 03:47:08;;;;;;;6.68;2.83;;;3.10;99.90;;;;;;5031548;28;20202;-60
2024/01/22 03:49:37;;;;;;;7.95;2.60;;;3.00;99.90;;;;;;5031661;28;20226;-59
2024/01/22 03:52:06;;;;;;;5.95;2.70;;;3.00;99.90;;;;;;5031775;28;20206;-59
2024/01/22 03:54:34;;;;;;;4.07;2.67;;;2.90;99.90;;;;;;5032038;28;21034;-59
2024/01/22 03:57:06;;;;;;;5.00;2.90;;;3.00;99.90;;;;;;5031959;28;20672;-59
2024/01/22 03:59:35;;;;;;;3.90;2.92;;;3.00;99.90;;;;;;5031851;28;20234;-59
2024/01/22 04:02:03;;;;;;;4.82;3.03;;;3.10;99.90;;;;;;5031354;28;20206;-60
2024/01/22 04:04:30;;;;;;;8.13;3.10;;;3.10;99.90;;;;;;5035988;28;20636;-59
2024/01/22 04:07:00;;;;;;;4.60;2.78;;;3.20;99.90;;;;;;5049629;28;20259;-59
2024/01/22 04:09:28;;;;;;;6.78;2.60;;;3.20;99.90;;;;;;5031721;28;20230;-60
2024/01/22 04:11:56;;;;;;;4.88;2.42;;;3.30;99.90;;;;;;5031380;28;20237;-61
2024/01/22 04:14:24;;;;;;;3.00;2.60;;;3.30;99.90;;;;;;5031262;28;20203;-59
2024/01/22 04:16:52;;;;;;;5.50;2.70;;;3.30;99.90;;;;;;5033097;28;20202;-59
2024/01/22 04:19:20;;;;;;;4.97;2.95;;;3.40;99.90;;;;;;5038527;28;20222;-60
2024/01/22 04:21:48;;;;;;;5.55;2.55;;;3.40;99.90;;;;;;5031512;28;20215;-58
2024/01/22 04:24:18;;;;;;;10.95;3.15;;;3.40;99.90;;;;;;5029600;28;20202;-59
2024/01/22 04:26:46;;;;;;;5.65;2.60;;;3.40;99.90;;;;;;5028108;28;20214;-60
2024/01/22 04:29:13;;;;;;;5.30;2.83;;;3.50;99.90;;;;;;5031194;28;20226;-59
2024/01/22 04:31:41;;;;;;;5.82;2.83;;;3.50;99.90;;;;;;5031315;28;20277;-60
2024/01/22 04:34:09;;;;;;;6.47;3.25;;;3.50;99.90;;;;;;5031308;28;20210;-59
2024/01/22 04:36:37;;;;;;;3.20;2.30;;;3.50;99.90;;;;;;5031639;28;20256;-60
2024/01/22 04:39:05;;;;;;;8.30;2.50;;;3.50;99.90;;;;;;5031182;28;20292;-59
2024/01/22 04:41:34;;;;;;;4.95;2.35;;;3.60;99.90;;;;;;5030089;28;20210;-60
2024/01/22 04:44:02;;;;;;;4.03;2.22;;;3.60;99.90;;;;;;5030999;28;20206;-60
2024/01/22 04:46:30;;;;;;;2.75;2.50;;;3.60;99.90;;;;;;5032898;28;20206;-59
2024/01/22 04:48:59;;;;;;;7.53;2.42;;;3.70;99.90;;;;;;5030577;28;20301;-60
2024/01/22 04:51:27;;;;;;;5.10;2.22;;;3.70;99.90;;;;;;5030700;28;20672;-60
2024/01/22 04:53:55;;;;;;;5.13;2.17;;;3.70;99.90;;;;;;5031263;28;20218;-59
2024/01/22 04:56:23;;;;;;;3.03;2.33;;;3.70;99.90;;;;;;5044057;28;20350;-59
2024/01/22 04:58:52;;;;;;;3.95;2.25;;;3.80;99.90;;;;;;5031139;28;20276;-59
2024/01/22 05:01:20;;;;;;;6.53;2.47;;;3.80;99.90;;;;;;5034491;28;20265;-59
2024/01/22 05:03:48;;;;;;;5.30;2.35;;;3.80;99.90;;;;;;5039191;28;20210;-59
2024/01/22 05:06:16;;;;;;;3.05;2.60;;;3.80;99.90;;;;;;5030888;28;20210;-59
2024/01/22 05:08:44;;;;;;;7.60;2.72;;;3.80;99.90;;;;;;5037658;28;20229;-60
2024/01/22 05:11:12;;;;;;;9.43;2.67;;;3.80;99.90;;;;;;5040417;28;20290;-59
2024/01/22 05:13:48;;;;;;;5.47;2.50;;;3.80;99.90;;;;;;5031062;28;20285;-59
2024/01/22 05:16:17;;;;;;;3.72;2.17;;;3.80;99.90;;;;;;5033060;28;20253;-59
2024/01/22 05:18:46;;;;;;;5.38;2.45;;;3.70;99.90;;;;;;5047105;28;20261;-59
2024/01/22 05:21:14;;;;;;;2.30;2.10;;;3.70;99.90;;;;;;5031878;28;20231;-59
2024/01/22 05:23:42;;;;;;;3.83;2.00;;;3.80;99.90;;;;;;5030381;28;20252;-60
2024/01/22 05:26:10;;;;;;;5.10;2.15;;;3.80;99.90;;;;;;5030916;28;20207;-59
2024/01/22 05:28:38;;;;;;;2.72;1.73;;;3.80;99.90;;;;;;5030777;28;20258;-56
2024/01/22 05:31:06;;;;;;;7.55;2.55;;;3.90;99.90;;;;;;5030787;28;20211;-57
2024/01/22 05:33:35;;;;;;;3.50;2.28;;;3.90;99.90;;;;;;5029791;28;20318;-56
2024/01/22 05:36:03;;;;;;;3.05;1.70;;;3.90;99.90;;;;;;5029749;28;20214;-56
2024/01/22 05:38:31;;;;;;;7.00;1.77;;;3.90;99.90;;;;;;5029849;28;20309;-55
2024/01/22 05:40:59;;;;;;;5.10;2.17;;;3.90;99.90;;;;;;5030584;28;20254;-55
2024/01/22 05:43:28;;;;;;;2.80;1.70;;;4.00;99.90;;;;;;5030551;28;20206;-55
2024/01/22 05:45:56;;;;;;;4.95;2.40;;;4.00;99.90;;;;;;5030729;28;20241;-55
2024/01/22 05:48:23;;;;;;;5.18;1.70;;;4.10;99.90;;;;;;5030531;28;20261;-58
2024/01/22 05:50:53;;;;;;;2.95;2.60;;;4.10;99.90;;;;;;5029779;28;20203;-57
2024/01/22 05:53:21;;;;;;;9.13;1.90;;;4.10;99.90;;;;;;5030338;28;20679;-56
2024/01/22 05:55:49;;;;;;;3.47;1.63;;;4.10;99.90;;;;;;5030294;28;20756;-56
2024/01/22 05:58:17;;;;;;;3.90;2.00;;;4.10;99.90;;;;;;5030488;28;20750;-57
2024/01/22 06:00:44;;;;;;;3.83;1.98;;;4.00;99.90;;;;;;5030460;28;20495;-58
2024/01/22 06:03:12;;;;;;;2.95;1.65;;;4.00;99.90;;;;;;5030300;28;20207;-57
2024/01/22 06:05:41;;;;;;;4.93;1.80;;;4.00;99.90;;;;;;5030678;28;20561;-57
2024/01/22 06:08:10;;;;;;;2.80;2.05;;;4.00;99.90;;;;;;5033524;28;20223;-56
2024/01/22 06:10:38;;;;;;;3.45;1.90;;;4.00;99.90;;;;;;5033791;28;20272;-56
2024/01/22 06:13:06;;;;;;;2.28;1.88;;;3.90;99.90;;;;;;5033913;28;20269;-56
2024/01/22 06:15:34;;;;;;;5.22;2.22;;;3.90;99.90;;;;;;5036476;28;20202;-55
2024/01/22 06:18:02;;;;;;;2.15;2.00;;;3.90;99.90;;;;;;5044389;28;20257;-55
2024/01/22 06:20:31;;;;;;;3.05;1.98;;;3.90;99.90;;;;;;5033689;28;20254;-56
2024/01/22 06:23:01;;;;;;;6.20;2.20;;;3.90;99.90;;;;;;5034993;28;20202;-55
2024/01/22 06:25:30;;;;;;;8.13;2.03;;;3.90;99.90;;;;;;5047030;28;20645;-55
2024/01/22 06:27:58;;;;;;;11.35;2.60;;;3.90;99.90;;;;;;5034898;28;20257;-58
2024/01/22 06:30:26;;;;;;;4.80;2.13;;;4.00;99.90;;;;;;5033513;28;20238;-56
2024/01/22 06:32:54;;;;;;;2.00;1.70;;;3.90;99.90;;;;;;5033226;28;20211;-55
2024/01/22 06:35:22;;;;;;;3.38;2.00;;;3.90;99.90;;;;;;5019639;28;20210;-57
2024/01/22 06:37:50;;;;;;;5.55;1.90;;;3.90;99.90;;;;;;5049534;28;20226;-55
2024/01/22 06:40:17;;;;;;;7.90;2.00;;;3.90;99.90;;;;;;5042410;28;20585;-56
2024/01/22 06:42:47;;;;;;;4.57;2.17;;;3.90;99.90;;;;;;5045753;28;20264;-57
2024/01/22 06:45:16;;;;;;;3.25;1.83;;;3.90;99.90;;;;;;5033589;28;20203;-58
2024/01/22 06:47:44;;;;;;;6.32;1.38;;;3.90;99.90;;;;;;5033399;28;20257;-59
2024/01/22 06:50:13;;;;;;;3.28;1.50;;;5.30;99.90;;;;;;5033583;28;20214;-56
2024/01/22 06:52:41;;;;;;;3.60;2.05;;;6.70;99.90;;;;;;5033300;28;20203;-56
2024/01/22 06:55:09;;;;;;;2.13;1.48;;;7.20;99.90;;;;;;5033611;28;20245;-55
2024/01/22 06:57:37;;;;;;;3.47;1.65;;;7.10;99.90;;;;;;5028139;28;20357;-56
2024/01/22 07:00:08;;;;;;;2.90;1.35;;;6.70;99.90;;;;;;5033081;28;20240;-59
2024/01/22 07:02:35;;;;;;;2.22;1.33;;;6.30;99.90;;;;;;5033542;28;20237;-59
2024/01/22 07:05:04;;;;;;;4.13;1.80;;;5.90;99.90;;;;;;5033102;28;20213;-58
2024/01/22 07:07:32;;;;;;;2.85;1.48;;;5.50;99.90;;;;;;5033321;28;20227;-59
2024/01/22 07:10:00;;;;;;;2.05;1.40;;;5.20;99.90;;;;;;5032974;28;20234;-59
2024/01/22 07:12:29;;;;;;;2.42;1.05;;;5.00;99.90;;;;;;5033066;28;20268;-58
2024/01/22 07:14:58;;;;;;;5.38;1.48;;;4.80;99.90;;;;;;5033146;28;20263;-59
2024/01/22 07:17:28;;;;;;;4.13;1.52;;;4.70;99.90;;;;;;5032383;28;20199;-59
2024/01/22 07:19:56;;;;;;;2.25;1.30;;;4.70;99.90;;;;;;5032970;28;20337;-58
2024/01/22 07:22:24;;;;;;;3.17;1.38;;;4.70;99.90;;;;;;5032958;28;20943;-58
2024/01/22 07:24:52;;;;;;;1.42;1.17;;;4.70;99.90;;;;;;5032919;28;20881;-58
2024/01/22 07:27:20;;;;;;;7.00;1.40;;;4.70;99.90;;;;;;5025195;28;20210;-58
2024/01/22 07:29:48;;;;;;;2.55;1.33;;;4.70;99.90;;;;;;5032113;28;20210;-59
2024/01/22 07:32:16;;;;;;;3.33;1.30;;;4.70;99.90;;;;;;5029397;28;20206;-57
2024/01/22 07:34:45;;;;;;;3.40;1.50;;;4.70;99.90;;;;;;5042295;28;20625;-59
2024/01/22 07:37:13;;;;;;;5.35;1.63;;;4.70;99.90;;;;;;5041273;28;20218;-59
2024/01/22 07:39:41;;;;;;;3.40;1.52;;;4.70;99.90;;;;;;5032488;28;20242;-60
2024/01/22 07:42:09;;;;;;;4.70;1.80;;;4.70;99.90;;;;;;5031335;28;20309;-59
2024/01/22 07:44:37;;;;;;;3.55;1.38;;;4.70;99.90;;;;;;5032174;28;20714;-59
2024/01/22 07:47:05;;;;;;;2.67;1.40;;;4.70;99.90;;;;;;5032257;28;20211;-59
2024/01/22 07:49:33;;;;;;;2.35;1.15;;;4.70;99.90;;;;;;5029502;28;20227;-59
2024/01/22 07:52:02;;;;;;;3.45;1.50;;;4.60;99.90;;;;;;5028434;28;20202;-59
2024/01/22 07:54:31;;;;;;;3.30;1.63;;;4.60;99.90;;;;;;5032317;28;20289;-60
2024/01/22 07:56:59;;;;;;;4.53;1.55;;;4.70;99.90;;;;;;5032553;28;20291;-60
2024/01/22 07:59:27;;;;;;;3.47;1.52;;;4.70;99.90;;;;;;5032188;28;20300;-58
2024/01/22 08:01:55;;;;;;;1.30;1.20;;;4.70;99.90;;;;;;5031924;28;20318;-59
2024/01/22 08:04:23;;;;;;;4.07;1.27;;;4.70;99.90;;;;;;5031957;28;20241;-59
2024/01/22 08:06:51;;;;;;;2.78;1.30;;;4.70;99.90;;;;;;5032470;28;20249;-59
2024/01/22 08:09:20;;;;;;;1.85;1.58;;;4.70;99.90;;;;;;5032006;28;20321;-59
2024/01/22 08:11:48;;;;;;;4.03;1.38;;;4.60;99.90;;;;;;5032076;28;20241;-59
2024/01/22 08:14:17;;;;;;;4.63;1.50;;;4.70;99.90;;;;;;5031008;28;20672;-58
2024/01/22 08:16:46;;;;;;;4.00;1.73;;;4.70;99.90;;;;;;5031770;28;20256;-60
2024/01/22 08:19:13;;;;;;;2.03;1.45;;;4.70;99.90;;;;;;5031823;28;20233;-59
2024/01/22 08:21:41;;;;;;;1.27;1.23;;;4.60;99.90;;;;;;5032138;28;20226;-59
2024/01/22 08:24:09;;;;;;;3.17;1.60;;;4.60;99.90;;;;;;5031988;28;20658;-59
2024/01/22 08:26:39;;;;;;;2.05;1.33;;;4.60;99.90;;;;;;5032035;28;20203;-59
2024/01/22 08:29:07;;;;;;;5.63;1.30;;;4.60;99.90;;;;;;5031490;28;20329;-59
2024/01/22 08:31:35;;;;;;;2.80;1.40;;;4.60;99.90;;;;;;5031646;28;20198;-59
2024/01/22 08:34:03;;;;;;;3.65;1.60;;;4.60;99.90;;;;;;5031835;28;20292;-59
2024/01/22 08:36:32;;;;;;;2.53;1.25;;;4.50;99.90;;;;;;5031797;28;20202;-59
2024/01/22 08:39:00;;;;;;;4.03;1.50;;;4.50;99.90;;;;;;5031271;28;20222;-59
2024/01/22 08:41:28;;;;;;;2.35;1.55;;;4.50;99.90;;;;;;5031416;28;20325;-59
2024/01/22 08:43:59;;;;;;;3.40;1.85;;;4.50;99.90;;;;;;5031330;28;20249;-59
2024/01/22 08:46:29;;;;;;;3.75;1.52;;;4.60;99.90;;;;;;5031834;28;20318;-59
2024/01/22 08:48:56;;;;;;;3.80;1.73;;;4.60;99.90;;;;;;5031307;28;20230;-59
2024/01/22 08:51:24;;;;;;;1.80;1.25;;;4.60;99.90;;;;;;5031572;28;20202;-61
2024/01/22 08:53:53;;;;;;;4.63;1.50;;;4.60;99.90;;;;;;5031662;28;20210;-60
2024/01/22 08:56:21;;;;;;;3.22;1.30;;;4.70;99.90;;;;;;5031880;28;20203;-59
2024/01/22 08:58:48;;;;;;;3.35;1.50;;;4.70;99.90;;;;;;5031895;28;20226;-60
2024/01/22 09:01:18;;;;;;;5.35;1.25;;;4.80;99.90;;;;;;5032208;28;20336;-60
2024/01/22 09:03:47;;;;;;;2.30;1.33;;;4.80;99.90;;;;;;5032113;28;20206;-60
2024/01/22 09:06:15;;;;;;;3.65;1.17;;;4.90;99.90;;;;;;5026250;28;20293;-60
2024/01/22 09:08:43;;;;;;;2.25;1.23;;;4.90;99.90;;;;;;5030822;28;20645;-60
2024/01/22 09:11:11;;;;;;;2.78;1.55;;;4.90;99.90;;;;;;5030882;28;20207;-59
2024/01/22 09:13:40;;;;;;;3.75;1.30;;;4.90;99.90;;;;;;5024950;28;20560;-60
2024/01/22 09:16:14;;;;;;;3.97;1.42;;;5.00;99.90;;;;;;5029630;28;20669;-60
2024/01/22 09:18:44;;;;;;;2.97;1.52;;;5.00;99.90;;;;;;5030579;28;20607;-59
2024/01/22 09:21:13;;;;;;;2.25;1.35;;;5.00;99.90;;;;;;5027614;28;20286;-60
2024/01/22 09:23:41;;;;;;;4.65;1.55;;;5.00;99.90;;;;;;5031166;28;20230;-60
2024/01/22 09:26:09;;;;;;;2.60;1.35;;;5.10;99.90;;;;;;5031974;28;20237;-60
2024/01/22 09:28:37;;;;;;;4.10;1.77;;;5.10;99.90;;;;;;5031398;28;20262;-60
2024/01/22 09:31:05;;;;;;;2.50;1.30;;;5.20;99.90;;;;;;5030545;28;20272;-60
2024/01/22 09:33:33;;;;;;;3.58;1.40;;;5.30;99.90;;;;;;5030859;28;20580;-60
2024/01/22 09:36:03;;;;;;;2.28;1.35;;;5.30;99.90;;;;;;5030336;28;20204;-60
2024/01/22 09:38:31;;;;;;;1.70;1.45;;;5.30;99.90;;;;;;5030642;28;20222;-60
2024/01/22 09:40:59;;;;;;;7.07;1.10;;;5.30;99.90;;;;;;5030108;28;20229;-60
2024/01/22 09:43:27;;;;;;;1.52;1.02;;;5.40;99.90;;;;;;5032886;28;20222;-60
2024/01/22 09:45:56;;;;;;;1.20;1.10;;;5.40;99.90;;;;;;5032763;28;20268;-60
2024/01/22 09:48:24;;;;;;;2.95;1.60;;;5.50;99.90;;;;;;5036940;28;20237;-60
2024/01/22 09:50:52;;;;;;;8.70;1.50;;;5.60;99.90;;;;;;5037536;28;20211;-59
2024/01/22 09:53:22;;;;;;;2.50;1.20;;;5.70;99.90;;;;;;5037793;28;20207;-59
2024/01/22 09:55:50;;;;;;;5.85;1.50;;;5.70;99.90;;;;;;5038416;28;20676;-59
2024/01/22 09:58:21;;;;;;;1.90;1.42;;;5.80;99.90;;;;;;5030068;28;20226;-59
2024/01/22 10:00:49;;;;;;;1.48;1.38;;;5.90;99.90;;;;;;5029939;28;20202;-59
2024/01/22 10:03:17;;;;;;;1.63;1.35;;;5.90;99.90;;;;;;5041552;28;20280;-58
2024/01/22 10:05:45;;;;;;;2.67;1.33;;;6.00;99.90;;;;;;5040702;28;20207;-57
2024/01/22 10:08:13;;;;;;;1.95;1.27;;;6.10;99.90;;;;;;5040493;28;20227;-60
2024/01/22 10:10:43;;;;;;;4.10;1.35;;;6.10;99.90;;;;;;5041326;28;20658;-59
2024/01/22 10:13:12;;;;;;;3.25;1.50;;;6.20;99.90;;;;;;5044351;28;20306;-59
2024/01/22 10:15:40;;;;;;;1.92;1.30;;;6.20;99.90;;;;;;5044748;28;20765;-59
2024/01/22 10:18:12;;;;;;;3.47;1.08;;;6.40;99.90;;;;;;5040709;28;20254;-59
2024/01/22 10:20:41;;;;;;;2.63;1.17;;;6.40;99.90;;;;;;5038600;28;20210;-59
2024/01/22 10:23:10;;;;;;;2.33;1.20;;;6.40;99.90;;;;;;5042186;28;20226;-59
2024/01/22 10:25:37;;;;;;;5.03;1.38;;;6.50;99.90;;;;;;5033951;28;20203;-60
2024/01/22 10:28:11;;;;;;;2.28;1.05;;;6.50;99.90;;;;;;5033927;28;20276;-60
2024/01/22 10:30:39;;;;;;;2.10;1.50;;;6.40;99.90;;;;;;5032561;28;20688;-60
2024/01/22 10:33:12;;;;;;;5.18;1.30;;;6.50;99.90;;;;;;5033734;28;20207;-59
2024/01/22 10:35:40;;;;;;;2.80;1.00;;;6.50;99.90;;;;;;5033221;28;20631;-60
2024/01/22 10:38:09;;;;;;;3.60;1.58;;;6.50;99.90;;;;;;5033718;28;20244;-60
2024/01/22 10:40:37;;;;;;;2.90;1.23;;;6.50;99.90;;;;;;5030628;28;20225;-60
2024/01/22 10:43:24;;;;;;;4.43;1.35;;;6.50;99.90;;;;;;5033559;28;20288;-60
2024/01/22 10:45:51;;;;;;;3.30;1.42;;;6.50;99.90;;;;;;5033712;28;20260;-60
2024/01/22 10:48:20;;;;;;;2.05;1.30;;;6.60;99.90;;;;;;5033708;28;20285;-60
2024/01/22 10:51:05;;;;;;;2.95;1.60;;;6.60;99.90;;;;;;5033958;28;20293;-60
2024/01/22 10:53:33;;;;;;;2.85;1.25;;;6.60;99.90;;;;;;5031996;28;20302;-60
2024/01/22 10:56:02;;;;;;;2.25;1.00;;;6.50;99.90;;;;;;5033318;28;20218;-60
2024/01/22 10:58:38;;;;;;;4.28;1.40;;;6.50;99.90;;;;;;5033091;28;20222;-60
2024/01/22 11:01:10;;;;;;;3.67;1.30;;;6.50;99.90;;;;;;5032737;28;20206;-60
2024/01/22 11:03:39;;;;;;;4.45;1.17;;;6.50;99.90;;;;;;5033024;28;20226;-60
2024/01/22 11:06:07;;;;;;;3.30;1.48;;;6.50;99.90;;;;;;5033611;28;20268;-60
2024/01/22 11:08:37;;;;;;;1.88;1.55;;;6.50;99.90;;;;;;5034289;28;20249;-60
2024/01/22 11:11:05;;;;;;;4.07;1.52;;;6.50;99.90;;;;;;5033156;28;20211;-59
2024/01/22 11:13:34;;;;;;;2.15;1.20;;;6.40;99.90;;;;;;5032030;28;20248;-60
2024/01/22 11:16:03;;;;;;;3.72;1.58;;;6.40;99.90;;;;;;5031622;28;20210;-60
2024/01/22 11:18:31;;;;;;;2.08;1.30;;;6.40;99.90;;;;;;5032831;28;20296;-60
2024/01/22 11:21:24;;;;;;;1.80;1.40;;;6.40;99.90;;;;;;5032910;28;20215;-59
2024/01/22 11:24:05;;;;;;;3.28;1.13;;;6.40;99.90;;;;;;5012987;28;20258;-59
2024/01/22 11:26:33;;;;;;;2.63;1.67;;;6.40;99.90;;;;;;5032899;28;20586;-59
2024/01/22 11:29:10;;;;;;;6.15;1.42;;;6.40;99.90;;;;;;5056397;22;21337;-62
2024/01/22 11:31:38;;;;;;;3.47;2.20;;;6.50;99.90;;;;;;5024749;28;20289;-62
2024/01/22 11:34:06;;;;;;;8.75;1.80;;;6.50;99.90;;;;;;5032574;28;20237;-62
2024/01/22 11:36:55;;;;;;;2.42;1.55;;;6.50;99.90;;;;;;5032643;28;20638;-62
2024/01/22 11:39:42;;;;;;;1.58;1.30;;;6.50;99.90;;;;;;5032507;28;20226;-61
2024/01/22 11:42:26;;;;;;;3.65;1.42;;;6.40;99.90;;;;;;5032332;28;20293;-62
2024/01/22 11:44:58;;;;;;;2.28;1.50;;;6.40;99.90;;;;;;5032188;28;20770;-62
2024/01/22 11:47:27;;;;;;;7.18;1.90;;;6.40;99.90;;;;;;5032262;28;20978;-62
2024/01/22 11:50:01;;;;;;;3.90;1.85;;;6.50;99.90;;;;;;5032167;28;20237;-62
2024/01/22 11:52:31;;;;;;;3.28;1.70;;;6.50;99.90;;;;;;5031966;28;20214;-62
2024/01/22 11:55:01;;;;;;;3.30;1.65;;;6.50;99.90;;;;;;5032070;28;20576;-63
2024/01/22 11:57:31;;;;;;;3.22;1.88;;;6.60;99.90;;;;;;5032034;28;20207;-62
2024/01/22 12:00:04;;;;;;;2.33;1.90;;;6.60;99.90;;;;;;5032090;28;20238;-63
2024/01/22 12:02:33;;;;;;;2.33;2.10;;;6.60;99.90;;;;;;5031160;28;20293;-62
2024/01/22 12:05:06;;;;;;;3.42;2.28;;;6.60;99.90;;;;;;5031774;28;20230;-62
2024/01/22 12:07:34;;;;;;;4.20;1.98;;;6.60;99.90;;;;;;5032019;28;20264;-62
2024/01/22 12:10:04;;;;;;;3.22;2.03;;;6.70;99.90;;;;;;5031507;28;20234;-62
2024/01/22 12:12:32;;;;;;;3.78;2.25;;;6.70;99.90;;;;;;5031583;28;20214;-63
2024/01/22 12:15:03;;;;;;;4.90;1.88;;;6.70;99.90;;;;;;5035523;28;20205;-63
2024/01/22 12:17:31;;;;;;;5.60;2.50;;;6.70;99.90;;;;;;5032043;28;20205;-63
2024/01/22 12:19:59;;;;;;;2.58;1.20;;;6.70;99.90;;;;;;5031034;28;20250;-62
2024/01/22 12:22:29;;;;;;;1.05;0.93;;;7.50;99.90;;;;;;5030903;28;20215;-62
2024/01/22 12:25:07;;;;;;;1.90;0.90;;;8.80;99.90;;;;;;5031343;28;20728;-62
2024/01/22 12:27:36;;;;;;;5.38;1.65;;;10.00;99.90;;;;;;5028666;28;20233;-63
2024/01/22 12:30:06;;;;;;;1.65;1.50;;;10.10;99.90;;;;;;5030799;28;20296;-63
2024/01/22 12:32:35;;;;;;;2.60;1.50;;;9.60;99.90;;;;;;5030175;28;20209;-63
2024/01/22 12:35:03;;;;;;;3.45;1.58;;;9.00;99.90;;;;;;5030037;28;20298;-63
2024/01/22 12:37:33;;;;;;;2.03;1.55;;;8.50;99.90;;;;;;5031245;28;20214;-63
2024/01/22 12:40:14;;;;;;;5.15;1.70;;;8.10;99.90;;;;;;5031256;28;20230;-63
2024/01/22 12:42:43;;;;;;;2.25;1.58;;;7.70;99.90;;;;;;5030305;28;20207;-63
2024/01/22 12:45:14;;;;;;;2.58;1.70;;;7.50;99.90;;;;;;5030905;28;20230;-64
2024/01/22 12:47:43;;;;;;;4.40;1.75;;;7.40;99.90;;;;;;5030650;28;20206;-64
2024/01/22 12:50:11;;;;;;;5.13;1.80;;;7.30;99.90;;;;;;5031191;28;20261;-64
2024/01/22 12:52:40;;;;;;;4.25;1.40;;;7.20;99.90;;;;;;5031309;28;20206;-64
2024/01/22 12:55:09;;;;;;;5.18;1.67;;;7.00;99.90;;;;;;5031326;28;20723;-63
2024/01/22 12:57:37;;;;;;;5.03;1.60;;;7.00;99.90;;;;;;5030903;28;20210;-63
2024/01/22 13:00:08;;;;;;;3.15;1.35;;;7.00;99.90;;;;;;5030608;28;20258;-62
2024/01/22 13:02:38;;;;;;;2.63;1.40;;;7.00;99.90;;;;;;5030886;28;20217;-62
2024/01/22 13:05:08;;;;;;;1.50;1.40;;;6.90;99.90;;;;;;5030814;28;20642;-63